aviador You're here:

PAFS Decoded Metar

NIKOLAI in AK, USA
Report Time2018-02-22 06:01:00
UTC Time2018-02-22 06:46:54
Flight Rules vfr VFR
WindCalm
Visibility9999 m
Phenomena:N/A
Clouds:Broken 045 Hf
Overcast 095 Hf
Expected CloudBase > 400 ft AGL from Temp-Dew spread
Ceiling4,500 ft
Temp-3°C (ISA -17)
Dew Point-4°C (93% RH)
AAT-5.5°C
QNH1018 hPa
Density Alt-1,808 ft
Elevation413 ft
Report Wrong Elevation
Raw Report
PAFS 220601Z AUTO 00000KT 10SM BKN045 OVC095 M03/M04 A3006=

Extra information for PAFS:More info

Metar Taf Metar & Taf Last 4 Metars F.Rules Stats Wind Profile Meteogram Temp Stats Airport Information Weather charts Add Link Nearby VenuesMetar ALERT Operation Metar Decoded Social comments

AIRNAV info for PAFS